sensor_id;sensor_type;location;lat;lon;timestamp;temperature;humidity
11609;DHT22;5860;52.018;8.536;2023-06-26T00:01:31;21.10;99.90
11609;DHT22;5860;52.018;8.536;2023-06-26T00:03:59;21.20;99.90
11609;DHT22;5860;52.018;8.536;2023-06-26T00:06:26;21.20;99.90
11609;DHT22;5860;52.018;8.536;2023-06-26T00:08:54;21.20;99.90
11609;DHT22;5860;52.018;8.536;2023-06-26T00:11:21;21.10;99.90
11609;DHT22;5860;52.018;8.536;2023-06-26T00:13:49;21.00;99.90
11609;DHT22;5860;52.018;8.536;2023-06-26T00:16:16;21.10;99.90
11609;DHT22;5860;52.018;8.536;2023-06-26T00:18:43;21.10;99.90
11609;DHT22;5860;52.018;8.536;2023-06-26T00:21:10;21.10;99.90
11609;DHT22;5860;52.018;8.536;2023-06-26T00:23:37;21.10;99.90
11609;DHT22;5860;52.018;8.536;2023-06-26T00:26:07;21.10;99.90
11609;DHT22;5860;52.018;8.536;2023-06-26T00:28:34;21.20;99.90
11609;DHT22;5860;52.018;8.536;2023-06-26T00:31:00;21.10;99.90
11609;DHT22;5860;52.018;8.536;2023-06-26T00:33:27;21.10;99.90
11609;DHT22;5860;52.018;8.536;2023-06-26T00:35:54;21.10;99.90
11609;DHT22;5860;52.018;8.536;2023-06-26T00:38:21;21.10;99.90
11609;DHT22;5860;52.018;8.536;2023-06-26T00:40:48;21.10;99.90
11609;DHT22;5860;52.018;8.536;2023-06-26T00:43:15;21.20;99.90
11609;DHT22;5860;52.018;8.536;2023-06-26T00:45:42;21.20;99.90
11609;DHT22;5860;52.018;8.536;2023-06-26T00:48:10;21.20;99.90
11609;DHT22;5860;52.018;8.536;2023-06-26T00:50:39;21.20;99.90
11609;DHT22;5860;52.018;8.536;2023-06-26T00:53:09;21.20;99.90
11609;DHT22;5860;52.018;8.536;2023-06-26T00:55:37;21.30;99.90
11609;DHT22;5860;52.018;8.536;2023-06-26T00:58:04;21.20;99.90
11609;DHT22;5860;52.018;8.536;2023-06-26T01:00:31;21.30;99.90
11609;DHT22;5860;52.018;8.536;2023-06-26T01:02:59;21.20;99.90
11609;DHT22;5860;52.018;8.536;2023-06-26T01:05:27;21.20;99.90
11609;DHT22;5860;52.018;8.536;2023-06-26T01:07:56;21.20;99.90
11609;DHT22;5860;52.018;8.536;2023-06-26T01:10:24;21.20;99.90
11609;DHT22;5860;52.018;8.536;2023-06-26T01:12:51;21.20;99.90
11609;DHT22;5860;52.018;8.536;2023-06-26T01:15:18;21.20;99.90
11609;DHT22;5860;52.018;8.536;2023-06-26T01:17:44;21.30;99.90
11609;DHT22;5860;52.018;8.536;2023-06-26T01:20:14;21.30;99.90
11609;DHT22;5860;52.018;8.536;2023-06-26T01:23:03;21.40;99.90
11609;DHT22;5860;52.018;8.536;2023-06-26T01:28:08;21.50;99.90
11609;DHT22;5860;52.018;8.536;2023-06-26T01:30:43;21.50;99.90
11609;DHT22;5860;52.018;8.536;2023-06-26T01:33:12;21.70;99.90
11609;DHT22;5860;52.018;8.536;2023-06-26T01:35:40;21.70;99.90
11609;DHT22;5860;52.018;8.536;2023-06-26T01:38:20;21.60;99.90
11609;DHT22;5860;52.018;8.536;2023-06-26T01:40:50;21.80;99.90
11609;DHT22;5860;52.018;8.536;2023-06-26T01:46:11;22.20;99.90
11609;DHT22;5860;52.018;8.536;2023-06-26T01:51:45;22.00;99.90
11609;DHT22;5860;52.018;8.536;2023-06-26T01:54:18;21.90;99.90
11609;DHT22;5860;52.018;8.536;2023-06-26T01:56:49;21.80;99.90
11609;DHT22;5860;52.018;8.536;2023-06-26T01:59:18;21.80;99.90
11609;DHT22;5860;52.018;8.536;2023-06-26T02:01:45;21.90;99.90
11609;DHT22;5860;52.018;8.536;2023-06-26T02:04:13;21.90;99.90
11609;DHT22;5860;52.018;8.536;2023-06-26T02:06:40;22.30;99.90
11609;DHT22;5860;52.018;8.536;2023-06-26T02:09:06;22.10;99.90
11609;DHT22;5860;52.018;8.536;2023-06-26T02:11:34;21.80;99.90
11609;DHT22;5860;52.018;8.536;2023-06-26T02:14:02;21.80;99.90
11609;DHT22;5860;52.018;8.536;2023-06-26T02:16:29;21.70;99.90
11609;DHT22;5860;52.018;8.536;2023-06-26T02:18:56;21.60;99.90
11609;DHT22;5860;52.018;8.536;2023-06-26T02:21:24;21.60;99.90
11609;DHT22;5860;52.018;8.536;2023-06-26T02:23:51;21.70;99.90
11609;DHT22;5860;52.018;8.536;2023-06-26T02:26:18;21.60;99.90
11609;DHT22;5860;52.018;8.536;2023-06-26T02:28:45;21.50;99.90
11609;DHT22;5860;52.018;8.536;2023-06-26T02:31:12;21.40;99.90
11609;DHT22;5860;52.018;8.536;2023-06-26T02:33:39;21.30;99.90
11609;DHT22;5860;52.018;8.536;2023-06-26T02:36:06;21.30;99.90
11609;DHT22;5860;52.018;8.536;2023-06-26T02:38:33;21.30;99.90
11609;DHT22;5860;52.018;8.536;2023-06-26T02:40:59;21.20;99.90
11609;DHT22;5860;52.018;8.536;2023-06-26T02:43:26;21.10;99.90
11609;DHT22;5860;52.018;8.536;2023-06-26T02:45:53;21.10;99.90
11609;DHT22;5860;52.018;8.536;2023-06-26T02:48:20;21.00;99.90
11609;DHT22;5860;52.018;8.536;2023-06-26T02:50:46;21.00;99.90
11609;DHT22;5860;52.018;8.536;2023-06-26T02:53:13;20.90;99.90
11609;DHT22;5860;52.018;8.536;2023-06-26T02:55:40;20.90;99.90
11609;DHT22;5860;52.018;8.536;2023-06-26T02:58:07;20.80;99.90
11609;DHT22;5860;52.018;8.536;2023-06-26T03:00:34;20.70;99.90
11609;DHT22;5860;52.018;8.536;2023-06-26T03:03:02;20.70;99.90
11609;DHT22;5860;52.018;8.536;2023-06-26T03:05:30;20.60;99.90
11609;DHT22;5860;52.018;8.536;2023-06-26T03:07:57;20.60;99.90
11609;DHT22;5860;52.018;8.536;2023-06-26T03:10:24;20.70;99.90
11609;DHT22;5860;52.018;8.536;2023-06-26T03:12:50;20.70;99.90
11609;DHT22;5860;52.018;8.536;2023-06-26T03:15:17;20.60;99.90
11609;DHT22;5860;52.018;8.536;2023-06-26T03:17:45;20.60;99.90
11609;DHT22;5860;52.018;8.536;2023-06-26T03:20:12;20.70;99.90
11609;DHT22;5860;52.018;8.536;2023-06-26T03:22:39;20.80;99.90
11609;DHT22;5860;52.018;8.536;2023-06-26T03:25:06;20.90;99.90
11609;DHT22;5860;52.018;8.536;2023-06-26T03:27:34;21.00;99.90
11609;DHT22;5860;52.018;8.536;2023-06-26T03:30:01;21.10;99.90
11609;DHT22;5860;52.018;8.536;2023-06-26T03:32:28;21.30;99.90
11609;DHT22;5860;52.018;8.536;2023-06-26T03:34:55;21.40;99.90
11609;DHT22;5860;52.018;8.536;2023-06-26T03:37:22;21.60;99.90
11609;DHT22;5860;52.018;8.536;2023-06-26T03:39:49;21.70;99.90
11609;DHT22;5860;52.018;8.536;2023-06-26T03:42:15;21.80;99.90
11609;DHT22;5860;52.018;8.536;2023-06-26T03:44:43;21.80;99.90
11609;DHT22;5860;52.018;8.536;2023-06-26T03:47:09;21.90;99.90
11609;DHT22;5860;52.018;8.536;2023-06-26T03:49:36;22.00;99.90
11609;DHT22;5860;52.018;8.536;2023-06-26T03:52:03;22.10;99.90
11609;DHT22;5860;52.018;8.536;2023-06-26T03:54:30;22.20;99.90
11609;DHT22;5860;52.018;8.536;2023-06-26T03:56:57;22.30;99.90
11609;DHT22;5860;52.018;8.536;2023-06-26T03:59:24;22.90;99.90
11609;DHT22;5860;52.018;8.536;2023-06-26T04:01:50;24.50;99.90
11609;DHT22;5860;52.018;8.536;2023-06-26T04:04:19;25.40;99.90
11609;DHT22;5860;52.018;8.536;2023-06-26T04:06:46;25.80;99.90
11609;DHT22;5860;52.018;8.536;2023-06-26T04:09:13;26.90;99.90
11609;DHT22;5860;52.018;8.536;2023-06-26T04:11:40;27.00;99.90
11609;DHT22;5860;52.018;8.536;2023-06-26T04:14:07;26.80;99.90
11609;DHT22;5860;52.018;8.536;2023-06-26T04:16:35;27.70;99.90
11609;DHT22;5860;52.018;8.536;2023-06-26T04:19:19;27.50;99.90
11609;DHT22;5860;52.018;8.536;2023-06-26T04:21:47;27.70;99.90
11609;DHT22;5860;52.018;8.536;2023-06-26T04:24:36;27.90;99.90
11609;DHT22;5860;52.018;8.536;2023-06-26T04:27:03;27.60;99.90
11609;DHT22;5860;52.018;8.536;2023-06-26T04:29:30;28.20;99.90
11609;DHT22;5860;52.018;8.536;2023-06-26T04:32:00;28.30;99.90
11609;DHT22;5860;52.018;8.536;2023-06-26T04:34:28;28.60;99.90
11609;DHT22;5860;52.018;8.536;2023-06-26T04:36:54;28.70;99.90
11609;DHT22;5860;52.018;8.536;2023-06-26T04:39:21;28.40;99.90
11609;DHT22;5860;52.018;8.536;2023-06-26T04:41:48;29.50;99.90
11609;DHT22;5860;52.018;8.536;2023-06-26T04:44:15;29.80;99.90
11609;DHT22;5860;52.018;8.536;2023-06-26T04:46:43;30.10;99.90
11609;DHT22;5860;52.018;8.536;2023-06-26T04:49:10;29.50;99.90
11609;DHT22;5860;52.018;8.536;2023-06-26T04:51:37;28.90;99.90
11609;DHT22;5860;52.018;8.536;2023-06-26T04:54:08;29.50;99.90
11609;DHT22;5860;52.018;8.536;2023-06-26T04:56:35;29.70;99.90
11609;DHT22;5860;52.018;8.536;2023-06-26T04:59:02;30.50;99.90
11609;DHT22;5860;52.018;8.536;2023-06-26T05:01:29;30.80;99.90
11609;DHT22;5860;52.018;8.536;2023-06-26T05:04:00;30.40;99.90
11609;DHT22;5860;52.018;8.536;2023-06-26T05:06:27;30.40;99.90
11609;DHT22;5860;52.018;8.536;2023-06-26T05:08:55;31.10;99.90
11609;DHT22;5860;52.018;8.536;2023-06-26T05:11:22;31.40;99.70
11609;DHT22;5860;52.018;8.536;2023-06-26T05:13:49;31.50;98.50
11609;DHT22;5860;52.018;8.536;2023-06-26T05:16:17;31.00;98.50
11609;DHT22;5860;52.018;8.536;2023-06-26T05:18:46;31.40;98.20
11609;DHT22;5860;52.018;8.536;2023-06-26T05:21:13;29.80;99.20
11609;DHT22;5860;52.018;8.536;2023-06-26T05:23:40;31.60;97.40
11609;DHT22;5860;52.018;8.536;2023-06-26T05:26:08;31.60;96.90
11609;DHT22;5860;52.018;8.536;2023-06-26T05:28:35;31.50;96.00
11609;DHT22;5860;52.018;8.536;2023-06-26T05:31:03;32.40;95.80
11609;DHT22;5860;52.018;8.536;2023-06-26T05:33:34;32.00;94.50
11609;DHT22;5860;52.018;8.536;2023-06-26T05:36:02;32.30;94.60
11609;DHT22;5860;52.018;8.536;2023-06-26T05:38:30;31.50;94.20
11609;DHT22;5860;52.018;8.536;2023-06-26T05:40:57;32.10;94.00
11609;DHT22;5860;52.018;8.536;2023-06-26T05:43:25;32.10;94.30
11609;DHT22;5860;52.018;8.536;2023-06-26T05:45:55;32.00;93.90
11609;DHT22;5860;52.018;8.536;2023-06-26T05:48:22;31.90;94.80
11609;DHT22;5860;52.018;8.536;2023-06-26T05:50:49;31.90;95.40
11609;DHT22;5860;52.018;8.536;2023-06-26T05:53:17;31.40;96.00
11609;DHT22;5860;52.018;8.536;2023-06-26T05:55:44;31.60;95.70
11609;DHT22;5860;52.018;8.536;2023-06-26T05:58:11;31.20;96.40
11609;DHT22;5860;52.018;8.536;2023-06-26T06:00:41;31.70;96.50
11609;DHT22;5860;52.018;8.536;2023-06-26T06:03:09;30.90;96.70
11609;DHT22;5860;52.018;8.536;2023-06-26T06:05:37;30.60;97.00
11609;DHT22;5860;52.018;8.536;2023-06-26T06:08:04;30.70;97.70
11609;DHT22;5860;52.018;8.536;2023-06-26T06:10:31;31.20;97.50
11609;DHT22;5860;52.018;8.536;2023-06-26T06:12:58;30.60;97.70
11609;DHT22;5860;52.018;8.536;2023-06-26T06:15:25;31.10;97.70
11609;DHT22;5860;52.018;8.536;2023-06-26T06:17:56;31.40;98.10
11609;DHT22;5860;52.018;8.536;2023-06-26T06:20:23;31.00;98.50
11609;DHT22;5860;52.018;8.536;2023-06-26T06:22:50;30.70;99.20
11609;DHT22;5860;52.018;8.536;2023-06-26T06:25:17;30.90;99.40
11609;DHT22;5860;52.018;8.536;2023-06-26T06:27:44;30.60;99.90
11609;DHT22;5860;52.018;8.536;2023-06-26T06:30:12;30.80;99.90
11609;DHT22;5860;52.018;8.536;2023-06-26T06:32:39;30.20;99.90
11609;DHT22;5860;52.018;8.536;2023-06-26T06:35:06;30.80;99.90
11609;DHT22;5860;52.018;8.536;2023-06-26T06:37:37;30.00;99.90
11609;DHT22;5860;52.018;8.536;2023-06-26T06:40:05;31.60;99.90
11609;DHT22;5860;52.018;8.536;2023-06-26T06:42:33;31.70;99.90
11609;DHT22;5860;52.018;8.536;2023-06-26T06:45:02;30.90;99.90
11609;DHT22;5860;52.018;8.536;2023-06-26T06:47:29;30.90;99.90
11609;DHT22;5860;52.018;8.536;2023-06-26T06:49:57;31.20;99.90
11609;DHT22;5860;52.018;8.536;2023-06-26T06:52:24;30.60;99.90
11609;DHT22;5860;52.018;8.536;2023-06-26T06:54:55;30.00;99.90
11609;DHT22;5860;52.018;8.536;2023-06-26T06:57:25;29.30;99.90
11609;DHT22;5860;52.018;8.536;2023-06-26T06:59:52;30.10;99.90
11609;DHT22;5860;52.018;8.536;2023-06-26T07:02:19;29.30;99.90
11609;DHT22;5860;52.018;8.536;2023-06-26T07:04:46;28.80;99.90
11609;DHT22;5860;52.018;8.536;2023-06-26T07:07:13;29.10;99.90
11609;DHT22;5860;52.018;8.536;2023-06-26T07:09:41;29.20;99.90
11609;DHT22;5860;52.018;8.536;2023-06-26T07:12:08;28.70;99.90
11609;DHT22;5860;52.018;8.536;2023-06-26T07:14:34;29.00;99.90
11609;DHT22;5860;52.018;8.536;2023-06-26T07:17:01;28.80;99.90
11609;DHT22;5860;52.018;8.536;2023-06-26T07:19:28;28.40;99.90
11609;DHT22;5860;52.018;8.536;2023-06-26T07:21:55;29.50;99.90
11609;DHT22;5860;52.018;8.536;2023-06-26T07:24:23;28.80;99.90
11609;DHT22;5860;52.018;8.536;2023-06-26T07:26:49;29.40;99.90
11609;DHT22;5860;52.018;8.536;2023-06-26T07:29:16;29.80;99.90
11609;DHT22;5860;52.018;8.536;2023-06-26T07:31:43;28.80;99.90
11609;DHT22;5860;52.018;8.536;2023-06-26T07:34:12;28.10;99.90
11609;DHT22;5860;52.018;8.536;2023-06-26T07:36:39;27.10;99.90
11609;DHT22;5860;52.018;8.536;2023-06-26T07:39:06;26.50;99.90
11609;DHT22;5860;52.018;8.536;2023-06-26T07:41:33;25.50;99.90
11609;DHT22;5860;52.018;8.536;2023-06-26T07:44:00;25.80;99.90
11609;DHT22;5860;52.018;8.536;2023-06-26T07:46:27;26.00;99.90
11609;DHT22;5860;52.018;8.536;2023-06-26T07:48:54;26.50;99.90
11609;DHT22;5860;52.018;8.536;2023-06-26T07:51:21;26.50;99.90
11609;DHT22;5860;52.018;8.536;2023-06-26T07:53:48;27.40;99.90
11609;DHT22;5860;52.018;8.536;2023-06-26T07:56:15;27.50;99.90
11609;DHT22;5860;52.018;8.536;2023-06-26T07:58:42;26.20;99.90
11609;DHT22;5860;52.018;8.536;2023-06-26T08:01:09;26.10;99.90
11609;DHT22;5860;52.018;8.536;2023-06-26T08:03:36;25.60;99.90
11609;DHT22;5860;52.018;8.536;2023-06-26T08:06:03;25.40;99.90
11609;DHT22;5860;52.018;8.536;2023-06-26T08:08:30;25.00;99.90
11609;DHT22;5860;52.018;8.536;2023-06-26T08:10:57;24.50;99.90
11609;DHT22;5860;52.018;8.536;2023-06-26T08:13:25;24.60;99.90
11609;DHT22;5860;52.018;8.536;2023-06-26T08:15:52;24.30;99.90
11609;DHT22;5860;52.018;8.536;2023-06-26T08:18:19;25.80;99.90
11609;DHT22;5860;52.018;8.536;2023-06-26T08:20:46;26.60;99.90
11609;DHT22;5860;52.018;8.536;2023-06-26T08:23:13;27.00;99.90
11609;DHT22;5860;52.018;8.536;2023-06-26T08:25:40;26.20;99.90
11609;DHT22;5860;52.018;8.536;2023-06-26T08:28:07;26.40;99.90
11609;DHT22;5860;52.018;8.536;2023-06-26T08:30:34;26.30;99.90
11609;DHT22;5860;52.018;8.536;2023-06-26T08:33:01;25.70;99.90
11609;DHT22;5860;52.018;8.536;2023-06-26T08:35:28;24.90;99.90
11609;DHT22;5860;52.018;8.536;2023-06-26T08:37:55;23.80;99.90
11609;DHT22;5860;52.018;8.536;2023-06-26T08:40:22;23.40;99.90
11609;DHT22;5860;52.018;8.536;2023-06-26T08:42:50;23.40;99.90
11609;DHT22;5860;52.018;8.536;2023-06-26T08:45:19;23.30;99.90
11609;DHT22;5860;52.018;8.536;2023-06-26T08:47:48;23.40;99.90
11609;DHT22;5860;52.018;8.536;2023-06-26T08:50:20;24.10;99.90
11609;DHT22;5860;52.018;8.536;2023-06-26T08:55:41;25.70;99.90
11609;DHT22;5860;52.018;8.536;2023-06-26T08:58:08;26.40;99.90
11609;DHT22;5860;52.018;8.536;2023-06-26T09:00:35;27.30;99.90
11609;DHT22;5860;52.018;8.536;2023-06-26T09:03:04;26.70;99.90
11609;DHT22;5860;52.018;8.536;2023-06-26T09:05:31;27.30;99.90
11609;DHT22;5860;52.018;8.536;2023-06-26T09:08:00;26.80;99.90
11609;DHT22;5860;52.018;8.536;2023-06-26T09:10:28;25.90;99.90
11609;DHT22;5860;52.018;8.536;2023-06-26T09:12:55;25.80;99.90
11609;DHT22;5860;52.018;8.536;2023-06-26T09:15:24;26.20;99.90
11609;DHT22;5860;52.018;8.536;2023-06-26T09:17:56;25.60;99.90
11609;DHT22;5860;52.018;8.536;2023-06-26T09:20:27;26.00;99.90
11609;DHT22;5860;52.018;8.536;2023-06-26T09:22:54;26.00;99.90
11609;DHT22;5860;52.018;8.536;2023-06-26T09:25:22;25.80;99.90
11609;DHT22;5860;52.018;8.536;2023-06-26T09:27:49;26.20;99.90
11609;DHT22;5860;52.018;8.536;2023-06-26T09:30:17;25.40;99.90
11609;DHT22;5860;52.018;8.536;2023-06-26T09:32:45;26.30;99.90
11609;DHT22;5860;52.018;8.536;2023-06-26T09:35:12;26.20;99.90
11609;DHT22;5860;52.018;8.536;2023-06-26T09:37:39;26.20;99.90
11609;DHT22;5860;52.018;8.536;2023-06-26T09:40:07;26.10;99.90
11609;DHT22;5860;52.018;8.536;2023-06-26T09:42:35;25.80;99.90
11609;DHT22;5860;52.018;8.536;2023-06-26T09:45:02;26.40;99.90
11609;DHT22;5860;52.018;8.536;2023-06-26T09:47:34;26.10;99.90
11609;DHT22;5860;52.018;8.536;2023-06-26T09:50:03;25.70;99.90
11609;DHT22;5860;52.018;8.536;2023-06-26T09:52:32;25.10;99.90
11609;DHT22;5860;52.018;8.536;2023-06-26T09:55:09;24.80;99.90
11609;DHT22;5860;52.018;8.536;2023-06-26T09:57:37;24.60;99.90
11609;DHT22;5860;52.018;8.536;2023-06-26T10:00:04;24.50;99.90
11609;DHT22;5860;52.018;8.536;2023-06-26T10:02:32;25.50;99.90
11609;DHT22;5860;52.018;8.536;2023-06-26T10:04:59;26.10;99.90
11609;DHT22;5860;52.018;8.536;2023-06-26T10:07:26;26.10;99.90
11609;DHT22;5860;52.018;8.536;2023-06-26T10:09:55;25.90;99.90
11609;DHT22;5860;52.018;8.536;2023-06-26T10:12:30;25.30;99.90
11609;DHT22;5860;52.018;8.536;2023-06-26T10:14:58;24.80;99.90
11609;DHT22;5860;52.018;8.536;2023-06-26T10:17:28;24.90;99.90
11609;DHT22;5860;52.018;8.536;2023-06-26T10:19:58;24.80;99.90
11609;DHT22;5860;52.018;8.536;2023-06-26T10:22:36;26.20;99.90
11609;DHT22;5860;52.018;8.536;2023-06-26T10:25:06;26.20;99.90
11609;DHT22;5860;52.018;8.536;2023-06-26T10:27:38;26.00;99.90
11609;DHT22;5860;52.018;8.536;2023-06-26T10:30:13;25.50;99.90
11609;DHT22;5860;52.018;8.536;2023-06-26T10:32:42;25.20;99.90
11609;DHT22;5860;52.018;8.536;2023-06-26T10:35:10;24.50;99.90
11609;DHT22;5860;52.018;8.536;2023-06-26T10:37:45;24.30;99.90
11609;DHT22;5860;52.018;8.536;2023-06-26T10:40:13;24.20;99.90
11609;DHT22;5860;52.018;8.536;2023-06-26T10:42:41;24.40;99.90
11609;DHT22;5860;52.018;8.536;2023-06-26T10:45:15;25.00;99.90
11609;DHT22;5860;52.018;8.536;2023-06-26T10:47:47;25.50;99.90
11609;DHT22;5860;52.018;8.536;2023-06-26T10:50:28;25.20;99.90
11609;DHT22;5860;52.018;8.536;2023-06-26T10:53:15;25.40;99.90
11609;DHT22;5860;52.018;8.536;2023-06-26T10:55:59;25.40;99.90
11609;DHT22;5860;52.018;8.536;2023-06-26T11:01:20;25.10;99.90
11609;DHT22;5860;52.018;8.536;2023-06-26T11:06:28;24.50;99.90
11609;DHT22;5860;52.018;8.536;2023-06-26T11:09:17;24.40;99.90
11609;DHT22;5860;52.018;8.536;2023-06-26T11:14:19;24.80;99.90
11609;DHT22;5860;52.018;8.536;2023-06-26T11:16:46;25.40;99.90
11609;DHT22;5860;52.018;8.536;2023-06-26T11:19:14;25.30;99.90
11609;DHT22;5860;52.018;8.536;2023-06-26T11:21:41;25.10;99.90
11609;DHT22;5860;52.018;8.536;2023-06-26T11:24:09;24.90;99.90
11609;DHT22;5860;52.018;8.536;2023-06-26T11:26:43;25.40;99.90
11609;DHT22;5860;52.018;8.536;2023-06-26T11:29:11;24.90;99.90
11609;DHT22;5860;52.018;8.536;2023-06-26T11:31:39;25.00;99.90
11609;DHT22;5860;52.018;8.536;2023-06-26T11:34:08;25.60;99.90
11609;DHT22;5860;52.018;8.536;2023-06-26T11:36:38;25.90;99.90
11609;DHT22;5860;52.018;8.536;2023-06-26T11:39:06;25.90;99.90
11609;DHT22;5860;52.018;8.536;2023-06-26T11:41:38;25.60;99.90
11609;DHT22;5860;52.018;8.536;2023-06-26T11:44:10;25.30;99.90
11609;DHT22;5860;52.018;8.536;2023-06-26T11:46:38;25.50;99.90
11609;DHT22;5860;52.018;8.536;2023-06-26T11:49:06;25.60;99.90
11609;DHT22;5860;52.018;8.536;2023-06-26T11:51:34;26.00;99.90
11609;DHT22;5860;52.018;8.536;2023-06-26T11:54:03;25.80;99.90
11609;DHT22;5860;52.018;8.536;2023-06-26T11:56:31;26.00;99.90
11609;DHT22;5860;52.018;8.536;2023-06-26T11:59:06;26.10;99.90
11609;DHT22;5860;52.018;8.536;2023-06-26T12:01:44;26.00;99.90
11609;DHT22;5860;52.018;8.536;2023-06-26T12:04:13;26.10;99.90
11609;DHT22;5860;52.018;8.536;2023-06-26T12:06:45;26.10;99.90
11609;DHT22;5860;52.018;8.536;2023-06-26T12:09:13;25.70;99.90
11609;DHT22;5860;52.018;8.536;2023-06-26T12:11:42;25.20;99.90
11609;DHT22;5860;52.018;8.536;2023-06-26T12:14:10;25.20;99.90
11609;DHT22;5860;52.018;8.536;2023-06-26T12:16:39;25.50;99.90
11609;DHT22;5860;52.018;8.536;2023-06-26T12:19:07;25.70;99.90
11609;DHT22;5860;52.018;8.536;2023-06-26T12:24:06;25.50;99.90
11609;DHT22;5860;52.018;8.536;2023-06-26T12:26:34;25.80;99.90
11609;DHT22;5860;52.018;8.536;2023-06-26T12:29:08;25.50;99.90
11609;DHT22;5860;52.018;8.536;2023-06-26T12:31:35;25.80;99.90
11609;DHT22;5860;52.018;8.536;2023-06-26T12:34:12;25.90;99.90
11609;DHT22;5860;52.018;8.536;2023-06-26T12:36:45;25.70;99.90
11609;DHT22;5860;52.018;8.536;2023-06-26T12:39:14;25.80;99.90
11609;DHT22;5860;52.018;8.536;2023-06-26T12:41:49;25.70;99.90
11609;DHT22;5860;52.018;8.536;2023-06-26T12:44:20;25.90;99.90
11609;DHT22;5860;52.018;8.536;2023-06-26T12:46:49;25.90;99.90
11609;DHT22;5860;52.018;8.536;2023-06-26T12:49:17;26.10;99.90
11609;DHT22;5860;52.018;8.536;2023-06-26T12:52:01;26.20;99.90
11609;DHT22;5860;52.018;8.536;2023-06-26T12:54:29;26.50;99.90
11609;DHT22;5860;52.018;8.536;2023-06-26T12:56:56;26.50;99.90
11609;DHT22;5860;52.018;8.536;2023-06-26T12:59:23;26.50;99.90
11609;DHT22;5860;52.018;8.536;2023-06-26T13:01:50;26.90;99.90
11609;DHT22;5860;52.018;8.536;2023-06-26T13:04:17;25.90;99.90
11609;DHT22;5860;52.018;8.536;2023-06-26T13:06:44;25.90;99.90
11609;DHT22;5860;52.018;8.536;2023-06-26T13:09:12;25.10;99.90
11609;DHT22;5860;52.018;8.536;2023-06-26T13:11:39;24.70;99.90
11609;DHT22;5860;52.018;8.536;2023-06-26T13:14:06;24.80;99.90
11609;DHT22;5860;52.018;8.536;2023-06-26T13:16:38;24.60;99.90
11609;DHT22;5860;52.018;8.536;2023-06-26T13:19:05;24.60;99.90
11609;DHT22;5860;52.018;8.536;2023-06-26T13:21:33;24.90;99.90
11609;DHT22;5860;52.018;8.536;2023-06-26T13:24:01;25.10;99.90
11609;DHT22;5860;52.018;8.536;2023-06-26T13:26:28;25.30;99.90
11609;DHT22;5860;52.018;8.536;2023-06-26T13:29:03;25.40;99.90
11609;DHT22;5860;52.018;8.536;2023-06-26T13:31:31;25.90;99.90
11609;DHT22;5860;52.018;8.536;2023-06-26T13:33:59;26.10;99.90
11609;DHT22;5860;52.018;8.536;2023-06-26T13:36:26;25.30;99.90
11609;DHT22;5860;52.018;8.536;2023-06-26T13:38:53;25.30;99.90
11609;DHT22;5860;52.018;8.536;2023-06-26T13:41:24;25.10;99.90
11609;DHT22;5860;52.018;8.536;2023-06-26T13:43:52;24.70;99.90
11609;DHT22;5860;52.018;8.536;2023-06-26T13:46:22;24.70;99.90
11609;DHT22;5860;52.018;8.536;2023-06-26T13:48:49;25.10;99.90
11609;DHT22;5860;52.018;8.536;2023-06-26T13:51:16;25.40;99.90
11609;DHT22;5860;52.018;8.536;2023-06-26T13:53:42;25.40;99.90
11609;DHT22;5860;52.018;8.536;2023-06-26T13:56:10;24.90;99.90
11609;DHT22;5860;52.018;8.536;2023-06-26T13:58:37;24.70;99.90
11609;DHT22;5860;52.018;8.536;2023-06-26T14:01:05;24.60;99.90
11609;DHT22;5860;52.018;8.536;2023-06-26T14:03:32;24.30;99.90
11609;DHT22;5860;52.018;8.536;2023-06-26T14:05:59;24.10;99.90
11609;DHT22;5860;52.018;8.536;2023-06-26T14:08:27;24.50;99.90
11609;DHT22;5860;52.018;8.536;2023-06-26T14:10:54;24.80;99.90
11609;DHT22;5860;52.018;8.536;2023-06-26T14:13:21;24.70;99.90
11609;DHT22;5860;52.018;8.536;2023-06-26T14:15:50;25.00;99.90
11609;DHT22;5860;52.018;8.536;2023-06-26T14:18:20;25.10;99.90
11609;DHT22;5860;52.018;8.536;2023-06-26T14:20:51;25.10;99.90
11609;DHT22;5860;52.018;8.536;2023-06-26T14:23:17;25.20;99.90
11609;DHT22;5860;52.018;8.536;2023-06-26T14:25:44;24.90;99.90
11609;DHT22;5860;52.018;8.536;2023-06-26T14:28:15;24.80;99.90
11609;DHT22;5860;52.018;8.536;2023-06-26T14:30:42;24.70;99.90
11609;DHT22;5860;52.018;8.536;2023-06-26T14:33:09;24.90;99.90
11609;DHT22;5860;52.018;8.536;2023-06-26T14:35:36;25.20;99.90
11609;DHT22;5860;52.018;8.536;2023-06-26T14:38:03;25.30;99.90
11609;DHT22;5860;52.018;8.536;2023-06-26T14:40:30;25.10;99.90
11609;DHT22;5860;52.018;8.536;2023-06-26T14:42:58;25.30;99.90
11609;DHT22;5860;52.018;8.536;2023-06-26T14:45:25;25.00;99.90
11609;DHT22;5860;52.018;8.536;2023-06-26T14:47:53;25.00;99.90
11609;DHT22;5860;52.018;8.536;2023-06-26T14:50:20;25.10;99.90
11609;DHT22;5860;52.018;8.536;2023-06-26T14:52:47;25.00;99.90
11609;DHT22;5860;52.018;8.536;2023-06-26T14:55:14;25.00;99.90
11609;DHT22;5860;52.018;8.536;2023-06-26T14:57:41;24.80;99.90
11609;DHT22;5860;52.018;8.536;2023-06-26T15:00:09;24.40;99.90
11609;DHT22;5860;52.018;8.536;2023-06-26T15:02:36;24.30;99.90
11609;DHT22;5860;52.018;8.536;2023-06-26T15:05:04;24.60;99.90
11609;DHT22;5860;52.018;8.536;2023-06-26T15:07:30;24.60;99.90
11609;DHT22;5860;52.018;8.536;2023-06-26T15:09:58;24.70;99.90
11609;DHT22;5860;52.018;8.536;2023-06-26T15:12:25;24.40;99.90
11609;DHT22;5860;52.018;8.536;2023-06-26T15:14:53;24.50;99.90
11609;DHT22;5860;52.018;8.536;2023-06-26T15:17:21;24.70;99.90
11609;DHT22;5860;52.018;8.536;2023-06-26T15:19:47;24.50;99.90
11609;DHT22;5860;52.018;8.536;2023-06-26T15:22:21;24.10;99.90
11609;DHT22;5860;52.018;8.536;2023-06-26T15:24:48;24.00;99.90
11609;DHT22;5860;52.018;8.536;2023-06-26T15:27:15;24.10;99.90
11609;DHT22;5860;52.018;8.536;2023-06-26T15:29:42;23.90;99.90
11609;DHT22;5860;52.018;8.536;2023-06-26T15:32:09;23.90;99.90
11609;DHT22;5860;52.018;8.536;2023-06-26T15:34:36;24.30;99.90
11609;DHT22;5860;52.018;8.536;2023-06-26T15:37:04;24.00;99.90
11609;DHT22;5860;52.018;8.536;2023-06-26T15:39:31;23.90;99.90
11609;DHT22;5860;52.018;8.536;2023-06-26T15:41:58;23.40;99.90
11609;DHT22;5860;52.018;8.536;2023-06-26T15:44:25;23.60;99.90
11609;DHT22;5860;52.018;8.536;2023-06-26T15:46:52;23.50;99.90
11609;DHT22;5860;52.018;8.536;2023-06-26T15:49:19;23.30;99.90
11609;DHT22;5860;52.018;8.536;2023-06-26T15:51:46;23.60;99.90
11609;DHT22;5860;52.018;8.536;2023-06-26T15:54:14;23.70;99.90
11609;DHT22;5860;52.018;8.536;2023-06-26T15:56:41;23.80;99.90
11609;DHT22;5860;52.018;8.536;2023-06-26T15:59:08;23.70;99.90
11609;DHT22;5860;52.018;8.536;2023-06-26T16:01:35;23.90;99.90
11609;DHT22;5860;52.018;8.536;2023-06-26T16:04:06;24.20;99.90
11609;DHT22;5860;52.018;8.536;2023-06-26T16:06:33;23.90;99.90
11609;DHT22;5860;52.018;8.536;2023-06-26T16:09:00;23.90;99.90
11609;DHT22;5860;52.018;8.536;2023-06-26T16:11:27;23.80;99.90
11609;DHT22;5860;52.018;8.536;2023-06-26T16:13:54;23.40;99.90